Time;durP1;ratioP1;P1;durP2;ratioP2;P2;SDS_P1;SDS_P2;PMS_P1;PMS_P2;Temp;Humidity;BMP_temperature;BMP_pressure;BME280_temperature;BME280_humidity;BME280_pressure;Samples;Min_cycle;Max_cycle;Signal;HPM_P1;HPM_P2
2021/06/24 00:01:41;;;;;;;8.00;2.03;;;;;;;;;;5039899;28;20038;-53
2021/06/24 00:04:13;;;;;;;7.70;2.05;;;;;;;;;;5043653;28;20045;-55
2021/06/24 00:06:39;;;;;;;5.60;1.63;;;;;;;;;;5056374;28;20029;-55
2021/06/24 00:09:07;;;;;;;7.72;1.90;;;;;;;;;;5048106;28;20049;-58
2021/06/24 00:11:33;;;;;;;7.97;1.85;;;;;;;;;;5047498;28;20041;-56
2021/06/24 00:14:02;;;;;;;5.35;1.77;;;;;;;;;;5057274;28;20052;-57
2021/06/24 00:16:28;;;;;;;;;;;;;;;;;;5043363;28;20110;-56
2021/06/24 00:18:55;;;;;;;6.00;1.83;;;;;;;;;;5038134;28;20087;-55
2021/06/24 00:21:21;;;;;;;9.52;1.70;;;;;;;;;;5043692;28;20045;-55
2021/06/24 00:23:48;;;;;;;4.95;1.70;;;;;;;;;;5037198;28;20074;-54
2021/06/24 00:26:15;;;;;;;4.22;1.63;;;;;;;;;;5041373;28;20038;-52
2021/06/24 00:28:41;;;;;;;12.70;2.00;;;;;;;;;;5037416;28;20041;-56
2021/06/24 00:31:09;;;;;;;4.55;1.60;;;;;;;;;;5022663;28;20041;-54
2021/06/24 00:33:36;;;;;;;6.13;1.50;;;;;;;;;;5030228;28;20037;-54
2021/06/24 00:36:03;;;;;;;5.38;1.73;;;;;;;;;;5044148;28;20041;-55
2021/06/24 00:38:29;;;;;;;9.55;1.70;;;;;;;;;;5055566;28;20076;-57
2021/06/24 00:40:56;;;;;;;17.10;1.90;;;;;;;;;;5059725;28;20064;-56
2021/06/24 00:43:26;;;;;;;6.85;1.80;;;;;;;;;;5042060;28;20069;-58
2021/06/24 00:45:53;;;;;;;7.47;1.60;;;;;;;;;;5046195;28;20091;-55
2021/06/24 00:48:21;;;;;;;6.85;1.67;;;;;;;;;;5042312;28;20040;-56
2021/06/24 00:50:47;;;;;;;5.83;1.80;;;;;;;;;;5058227;28;20126;-56
2021/06/24 00:53:14;;;;;;;5.75;1.70;;;;;;;;;;5059535;28;20052;-55
2021/06/24 00:55:42;;;;;;;7.45;1.90;;;;;;;;;;5038518;28;20049;-55
2021/06/24 00:58:10;;;;;;;8.38;1.70;;;;;;;;;;5043360;28;20052;-51
2021/06/24 01:00:38;;;;;;;5.60;2.03;;;;;;;;;;5037875;28;20104;-56
2021/06/24 01:03:04;;;;;;;9.00;1.88;;;;;;;;;;5041582;28;20122;-56
2021/06/24 01:05:33;;;;;;;4.90;1.77;;;;;;;;;;5036350;28;20041;-54
2021/06/24 01:07:59;;;;;;;10.25;1.95;;;;;;;;;;5038185;28;20053;-53
2021/06/24 01:10:26;;;;;;;10.93;1.88;;;;;;;;;;5040678;28;20037;-53
2021/06/24 01:12:52;;;;;;;8.43;2.03;;;;;;;;;;5061115;28;20171;-56
2021/06/24 01:15:19;;;;;;;8.98;2.13;;;;;;;;;;5050019;28;20048;-54
2021/06/24 01:17:45;;;;;;;5.47;1.38;;;;;;;;;;5041833;28;20041;-51
2021/06/24 01:20:12;;;;;;;14.40;2.10;;;;;;;;;;5038699;28;20045;-54
2021/06/24 01:22:40;;;;;;;8.57;1.92;;;;;;;;;;5043202;28;20041;-54
2021/06/24 01:25:09;;;;;;;5.85;1.85;;;;;;;;;;5039649;28;20053;-54
2021/06/24 01:27:35;;;;;;;6.38;1.63;;;;;;;;;;5042827;28;20041;-56
2021/06/24 01:30:02;;;;;;;11.52;1.92;;;;;;;;;;5056951;28;20220;-55
2021/06/24 01:32:29;;;;;;;4.68;2.08;;;;;;;;;;5062284;28;20037;-52
2021/06/24 01:34:56;;;;;;;5.22;2.00;;;;;;;;;;5061814;28;20072;-56
2021/06/24 01:37:23;;;;;;;5.82;1.60;;;;;;;;;;5018869;28;20054;-55
2021/06/24 01:39:49;;;;;;;5.88;1.98;;;;;;;;;;5042250;28;20059;-56
2021/06/24 01:42:17;;;;;;;8.77;1.83;;;;;;;;;;5039084;28;20054;-55
2021/06/24 01:44:50;;;;;;;4.47;1.97;;;;;;;;;;5041690;28;20093;-54
2021/06/24 01:47:16;;;;;;;11.45;2.50;;;;;;;;;;5070165;28;20044;-56
2021/06/24 01:49:43;;;;;;;5.90;1.88;;;;;;;;;;5063253;28;20037;-54
2021/06/24 01:52:09;;;;;;;9.40;2.38;;;;;;;;;;5045884;28;20064;-55
2021/06/24 01:54:36;;;;;;;6.88;2.25;;;;;;;;;;5043489;28;20160;-56
2021/06/24 01:57:02;;;;;;;6.97;2.25;;;;;;;;;;5054474;28;20062;-56
2021/06/24 01:59:31;;;;;;;8.57;2.05;;;;;;;;;;5042667;28;20033;-56
2021/06/24 02:01:58;;;;;;;7.97;1.92;;;;;;;;;;5060137;28;20045;-56
2021/06/24 02:04:28;;;;;;;4.40;2.00;;;;;;;;;;5058840;28;20056;-55
2021/06/24 02:06:54;;;;;;;6.57;1.85;;;;;;;;;;5052898;28;20060;-55
2021/06/24 02:09:21;;;;;;;7.90;1.88;;;;;;;;;;5047158;28;20044;-56
2021/06/24 02:11:47;;;;;;;7.28;2.00;;;;;;;;;;5039800;28;20045;-57
2021/06/24 02:14:14;;;;;;;8.70;1.95;;;;;;;;;;5041870;28;20056;-56
2021/06/24 02:16:41;;;;;;;7.28;1.85;;;;;;;;;;5041315;28;20044;-55
2021/06/24 02:19:08;;;;;;;5.43;2.20;;;;;;;;;;5061565;28;20045;-53
2021/06/24 02:21:34;;;;;;;3.92;1.83;;;;;;;;;;5043158;28;20066;-56
2021/06/24 02:24:01;;;;;;;6.53;2.10;;;;;;;;;;5039294;28;20045;-55
2021/06/24 02:26:27;;;;;;;8.15;2.50;;;;;;;;;;5041428;28;20049;-55
2021/06/24 02:28:54;;;;;;;4.07;2.10;;;;;;;;;;5037895;28;20041;-55
2021/06/24 02:31:20;;;;;;;5.15;2.65;;;;;;;;;;5042305;28;20045;-56
2021/06/24 02:33:49;;;;;;;4.72;1.95;;;;;;;;;;5037810;28;20049;-54
2021/06/24 02:36:15;;;;;;;;;;;;;;;;;;5058719;28;20094;-55
2021/06/24 02:38:42;;;;;;;9.68;1.90;;;;;;;;;;5038271;28;19921;-57
2021/06/24 02:41:08;;;;;;;6.60;1.77;;;;;;;;;;5042257;28;20057;-54
2021/06/24 02:43:36;;;;;;;8.35;2.45;;;;;;;;;;5054454;28;20103;-56
2021/06/24 02:46:02;;;;;;;4.80;2.15;;;;;;;;;;5056944;28;20057;-55
2021/06/24 02:48:29;;;;;;;7.57;2.20;;;;;;;;;;5039053;28;20071;-54
2021/06/24 02:50:57;;;;;;;5.18;1.88;;;;;;;;;;5041345;28;20142;-55
2021/06/24 02:53:23;;;;;;;7.60;2.17;;;;;;;;;;5038256;28;20057;-57
2021/06/24 02:55:50;;;;;;;7.55;2.28;;;;;;;;;;5042486;28;20041;-56
2021/06/24 02:58:16;;;;;;;6.10;1.92;;;;;;;;;;5037140;28;20057;-55
2021/06/24 03:00:43;;;;;;;6.15;2.10;;;;;;;;;;5021746;28;20049;-55
2021/06/24 03:03:09;;;;;;;7.45;2.08;;;;;;;;;;5011839;28;20090;-53
2021/06/24 03:05:36;;;;;;;8.77;1.85;;;;;;;;;;5016418;28;20127;-54
2021/06/24 03:08:04;;;;;;;5.65;2.20;;;;;;;;;;5022950;28;20053;-55
2021/06/24 03:10:32;;;;;;;5.25;2.10;;;;;;;;;;5032658;28;20064;-57
2021/06/24 03:12:58;;;;;;;5.47;1.88;;;;;;;;;;5040974;28;20037;-56
2021/06/24 03:15:25;;;;;;;7.57;1.70;;;;;;;;;;5053427;28;20052;-57
2021/06/24 03:17:54;;;;;;;4.88;2.03;;;;;;;;;;5065159;28;20052;-52
2021/06/24 03:20:22;;;;;;;4.30;2.17;;;;;;;;;;5062472;28;20040;-57
2021/06/24 03:22:48;;;;;;;12.05;2.00;;;;;;;;;;5051195;28;20037;-54
2021/06/24 03:25:17;;;;;;;9.43;2.22;;;;;;;;;;5040654;28;20033;-56
2021/06/24 03:27:44;;;;;;;5.55;1.90;;;;;;;;;;5044261;28;20037;-57
2021/06/24 03:30:13;;;;;;;6.63;2.10;;;;;;;;;;5041006;28;20041;-57
2021/06/24 03:32:39;;;;;;;4.68;1.63;;;;;;;;;;5044556;28;20053;-57
2021/06/24 03:35:06;;;;;;;10.00;2.00;;;;;;;;;;5039276;28;20321;-56
2021/06/24 03:37:33;;;;;;;4.70;1.98;;;;;;;;;;5044579;28;20033;-56
2021/06/24 03:39:59;;;;;;;7.30;1.90;;;;;;;;;;5038652;28;20114;-56
2021/06/24 03:42:27;;;;;;;6.88;1.65;;;;;;;;;;5050516;28;20052;-53
2021/06/24 03:44:54;;;;;;;9.53;1.77;;;;;;;;;;5077881;28;20041;-54
2021/06/24 03:47:20;;;;;;;7.70;1.83;;;;;;;;;;5058607;28;20037;-57
2021/06/24 03:49:47;;;;;;;4.20;1.83;;;;;;;;;;5077703;28;20040;-53
2021/06/24 03:52:13;;;;;;;5.55;1.75;;;;;;;;;;5075413;28;20037;-56
2021/06/24 03:54:41;;;;;;;6.63;1.90;;;;;;;;;;5081315;28;20037;-54
2021/06/24 03:57:08;;;;;;;7.77;1.70;;;;;;;;;;5078505;28;20047;-53
2021/06/24 03:59:35;;;;;;;4.95;1.98;;;;;;;;;;5081225;28;20040;-55
2021/06/24 04:02:03;;;;;;;6.83;2.07;;;;;;;;;;5042317;28;20033;-56
2021/06/24 04:04:30;;;;;;;5.25;2.05;;;;;;;;;;5057590;28;20048;-52
2021/06/24 04:06:57;;;;;;;4.78;1.70;;;;;;;;;;5046195;28;20041;-53
2021/06/24 04:09:23;;;;;;;7.80;2.10;;;;;;;;;;5048140;28;20045;-53
2021/06/24 04:11:50;;;;;;;7.00;2.15;;;;;;;;;;5033604;28;20045;-55
2021/06/24 04:14:17;;;;;;;3.90;1.80;;;;;;;;;;5024180;28;20041;-56
2021/06/24 04:16:45;;;;;;;4.60;1.90;;;;;;;;;;5020725;28;20037;-56
2021/06/24 04:19:12;;;;;;;5.20;2.00;;;;;;;;;;5023671;28;20033;-53
2021/06/24 04:21:38;;;;;;;8.02;2.10;;;;;;;;;;5020032;28;20053;-55
2021/06/24 04:24:05;;;;;;;8.88;2.20;;;;;;;;;;5022575;28;20066;-54
2021/06/24 04:26:32;;;;;;;4.97;1.77;;;;;;;;;;5042671;28;20052;-54
2021/06/24 04:28:58;;;;;;;7.63;2.10;;;;;;;;;;5052321;28;20043;-55
2021/06/24 04:31:25;;;;;;;6.32;1.98;;;;;;;;;;5075119;28;20049;-54
2021/06/24 04:33:53;;;;;;;3.75;1.75;;;;;;;;;;5074440;28;20029;-55
2021/06/24 04:36:19;;;;;;;7.28;2.10;;;;;;;;;;5078997;28;20040;-52
2021/06/24 04:38:46;;;;;;;7.95;2.05;;;;;;;;;;5057218;28;20036;-55
2021/06/24 04:41:12;;;;;;;7.25;2.00;;;;;;;;;;5061280;28;20044;-56
2021/06/24 04:43:39;;;;;;;4.20;2.10;;;;;;;;;;5060362;28;20163;-55
2021/06/24 04:46:05;;;;;;;5.78;2.00;;;;;;;;;;5061180;28;20041;-55
2021/06/24 04:48:32;;;;;;;10.93;2.47;;;;;;;;;;5057087;28;20044;-55
2021/06/24 04:51:00;;;;;;;6.72;2.30;;;;;;;;;;5061654;28;20118;-56
2021/06/24 04:53:26;;;;;;;7.33;2.50;;;;;;;;;;5062661;28;20037;-54
2021/06/24 04:55:53;;;;;;;6.28;2.15;;;;;;;;;;5080544;28;21225;-56
2021/06/24 04:58:19;;;;;;;9.40;2.20;;;;;;;;;;5077630;28;20040;-57
2021/06/24 05:00:46;;;;;;;6.70;2.10;;;;;;;;;;5079280;28;20068;-56
2021/06/24 05:03:13;;;;;;;6.47;2.30;;;;;;;;;;5077707;28;20037;-56
2021/06/24 05:05:41;;;;;;;5.07;2.33;;;;;;;;;;5078027;28;20079;-52
2021/06/24 05:08:11;;;;;;;8.18;2.53;;;;;;;;;;5078358;28;20050;-56
2021/06/24 05:10:38;;;;;;;7.65;2.40;;;;;;;;;;5062817;28;20051;-56
2021/06/24 05:13:05;;;;;;;6.45;2.60;;;;;;;;;;5083539;28;20051;-53
2021/06/24 05:15:32;;;;;;;5.85;2.25;;;;;;;;;;5054365;28;20045;-55
2021/06/24 05:17:59;;;;;;;3.75;2.15;;;;;;;;;;5043448;28;20044;-55
2021/06/24 05:20:25;;;;;;;5.85;2.53;;;;;;;;;;5038549;28;20118;-55
2021/06/24 05:22:52;;;;;;;9.27;2.53;;;;;;;;;;5041810;28;20049;-56
2021/06/24 05:25:20;;;;;;;7.70;2.47;;;;;;;;;;5047422;28;20037;-56
2021/06/24 05:27:46;;;;;;;7.93;2.50;;;;;;;;;;5065087;28;20028;-56
2021/06/24 05:30:13;;;;;;;9.27;2.45;;;;;;;;;;5047802;28;20296;-54
2021/06/24 05:32:40;;;;;;;5.25;2.00;;;;;;;;;;5059746;28;20124;-56
2021/06/24 05:35:09;;;;;;;7.68;2.65;;;;;;;;;;5055795;28;20068;-54
2021/06/24 05:37:35;;;;;;;12.50;2.50;;;;;;;;;;5062549;28;20048;-56
2021/06/24 05:40:02;;;;;;;5.43;2.08;;;;;;;;;;5060399;28;20068;-56
2021/06/24 05:42:30;;;;;;;9.38;2.33;;;;;;;;;;5064531;28;20032;-53
2021/06/24 05:44:57;;;;;;;5.90;2.20;;;;;;;;;;5058316;28;20058;-55
2021/06/24 05:47:24;;;;;;;5.72;2.63;;;;;;;;;;5065466;28;20048;-56
2021/06/24 05:49:50;;;;;;;10.25;2.33;;;;;;;;;;5063393;28;20033;-52
2021/06/24 05:52:17;;;;;;;9.57;2.60;;;;;;;;;;5078652;28;20044;-55
2021/06/24 05:54:43;;;;;;;6.57;2.25;;;;;;;;;;5060602;28;20040;-55
2021/06/24 05:57:10;;;;;;;8.23;2.67;;;;;;;;;;5059231;28;20049;-55
2021/06/24 05:59:38;;;;;;;7.30;2.78;;;;;;;;;;5062823;28;20055;-55
2021/06/24 06:02:04;;;;;;;7.47;2.37;;;;;;;;;;5057685;28;20113;-54
2021/06/24 06:04:31;;;;;;;5.85;2.30;;;;;;;;;;5062226;28;20278;-53
2021/06/24 06:06:57;;;;;;;8.80;2.67;;;;;;;;;;5069295;28;20052;-51
2021/06/24 06:09:24;;;;;;;8.85;2.20;;;;;;;;;;5064756;28;20036;-55
2021/06/24 06:11:50;;;;;;;5.93;2.30;;;;;;;;;;5077695;28;20051;-54
2021/06/24 06:14:17;;;;;;;4.43;1.73;;;;;;;;;;5061488;28;20044;-55
2021/06/24 06:16:45;;;;;;;9.68;2.30;;;;;;;;;;5057823;28;20032;-55
2021/06/24 06:19:11;;;;;;;4.68;2.15;;;;;;;;;;5046983;28;20218;-55
2021/06/24 06:21:38;;;;;;;7.20;2.30;;;;;;;;;;5056593;28;20129;-54
2021/06/24 06:24:05;;;;;;;9.13;2.22;;;;;;;;;;5065676;28;20028;-55
2021/06/24 06:26:32;;;;;;;8.75;2.40;;;;;;;;;;5077705;28;20041;-55
2021/06/24 06:29:03;;;;;;;7.97;2.40;;;;;;;;;;5062830;28;20230;-55
2021/06/24 06:31:29;;;;;;;8.20;2.15;;;;;;;;;;5077153;28;20040;-53
2021/06/24 06:33:57;;;;;;;6.47;2.03;;;;;;;;;;5062922;28;20060;-55
2021/06/24 06:36:24;;;;;;;7.72;2.40;;;;;;;;;;5063113;28;20033;-55
2021/06/24 06:38:50;;;;;;;6.20;2.15;;;;;;;;;;5060298;28;20037;-55
2021/06/24 06:41:17;;;;;;;3.50;1.70;;;;;;;;;;5064326;28;20079;-53
2021/06/24 06:43:44;;;;;;;5.72;1.88;;;;;;;;;;5061399;28;20040;-56
2021/06/24 06:46:10;;;;;;;8.38;1.90;;;;;;;;;;5065304;28;20060;-54
2021/06/24 06:48:37;;;;;;;4.97;1.92;;;;;;;;;;5058054;28;20072;-57
2021/06/24 06:51:05;;;;;;;3.10;1.52;;;;;;;;;;5076831;28;20041;-56
2021/06/24 06:53:31;;;;;;;6.80;1.73;;;;;;;;;;5074940;28;20056;-56
2021/06/24 06:55:58;;;;;;;4.97;1.90;;;;;;;;;;5079134;28;20040;-56
2021/06/24 06:58:25;;;;;;;4.80;1.73;;;;;;;;;;5076056;28;20057;-54
2021/06/24 07:00:51;;;;;;;5.65;1.90;;;;;;;;;;5066211;28;20044;-56
2021/06/24 07:03:18;;;;;;;9.27;2.10;;;;;;;;;;5063631;28;20044;-56
2021/06/24 07:05:45;;;;;;;6.50;1.77;;;;;;;;;;5066893;28;20049;-55
2021/06/24 07:08:13;;;;;;;7.70;1.70;;;;;;;;;;5060523;28;20040;-56
2021/06/24 07:10:40;;;;;;;9.55;1.88;;;;;;;;;;5061542;28;20162;-55
2021/06/24 07:13:09;;;;;;;4.68;1.77;;;;;;;;;;5081526;28;20032;-55
2021/06/24 07:15:36;;;;;;;7.45;2.20;;;;;;;;;;5059498;28;20051;-54
2021/06/24 07:18:02;;;;;;;5.05;2.15;;;;;;;;;;5078742;28;20047;-54
2021/06/24 07:20:29;;;;;;;8.70;1.98;;;;;;;;;;5072855;28;20052;-55
2021/06/24 07:22:56;;;;;;;7.88;2.08;;;;;;;;;;5077724;28;20411;-55
2021/06/24 07:25:24;;;;;;;6.85;1.90;;;;;;;;;;5071241;28;20056;-56
2021/06/24 07:27:51;;;;;;;7.55;1.95;;;;;;;;;;5023977;28;20047;-54
2021/06/24 07:30:19;;;;;;;11.70;1.95;;;;;;;;;;5058296;28;20036;-54
2021/06/24 07:32:45;;;;;;;7.38;1.75;;;;;;;;;;5061457;28;20044;-53
2021/06/24 07:35:12;;;;;;;4.88;1.75;;;;;;;;;;5039724;28;20041;-55
2021/06/24 07:37:39;;;;;;;5.65;1.63;;;;;;;;;;5040473;28;20041;-55
2021/06/24 07:40:06;;;;;;;3.45;1.58;;;;;;;;;;5021016;28;20032;-55
2021/06/24 07:42:37;;;;;;;8.27;1.95;;;;;;;;;;5041893;28;20098;-56
2021/06/24 07:45:04;;;;;;;11.90;1.90;;;;;;;;;;5041223;28;20321;-52
2021/06/24 07:47:31;;;;;;;3.35;1.65;;;;;;;;;;5042190;28;20045;-53
2021/06/24 07:49:57;;;;;;;5.13;1.75;;;;;;;;;;5043483;28;20052;-55
2021/06/24 07:52:24;;;;;;;4.32;1.80;;;;;;;;;;5062489;28;20056;-56
2021/06/24 07:54:51;;;;;;;4.78;1.67;;;;;;;;;;5060316;28;20197;-55
2021/06/24 07:57:17;;;;;;;3.92;1.60;;;;;;;;;;5062833;28;20040;-55
2021/06/24 07:59:46;;;;;;;5.57;2.00;;;;;;;;;;5064478;28;20032;-52
2021/06/24 08:02:13;;;;;;;5.63;1.50;;;;;;;;;;5065492;28;20052;-51
2021/06/24 08:04:40;;;;;;;6.32;1.58;;;;;;;;;;5063643;28;20129;-55
2021/06/24 08:07:07;;;;;;;8.77;1.63;;;;;;;;;;5062386;28;20068;-55
2021/06/24 08:09:33;;;;;;;5.75;1.90;;;;;;;;;;5040124;28;20048;-55
2021/06/24 08:12:00;;;;;;;3.95;1.75;;;;;;;;;;5038370;28;20046;-53
2021/06/24 08:14:29;;;;;;;5.32;1.98;;;;;;;;;;5043909;28;20041;-56
2021/06/24 08:16:55;;;;;;;;;;;;;;;;;;5039662;28;20048;-54
2021/06/24 08:19:23;;;;;;;7.82;1.85;;;;;;;;;;5060174;28;19916;-54
2021/06/24 08:21:50;;;;;;;5.90;2.00;;;;;;;;;;5042018;28;20056;-56
2021/06/24 08:24:19;;;;;;;5.13;1.93;;;;;;;;;;5047182;28;20037;-54
2021/06/24 08:26:46;;;;;;;4.65;1.60;;;;;;;;;;5042924;28;20049;-56
2021/06/24 08:29:12;;;;;;;11.40;2.70;;;;;;;;;;5046024;28;20090;-51
2021/06/24 08:31:38;;;;;;;11.40;2.05;;;;;;;;;;5043547;28;20040;-56
2021/06/24 08:34:05;;;;;;;10.43;2.53;;;;;;;;;;5047339;28;20049;-56
2021/06/24 08:36:33;;;;;;;6.00;1.83;;;;;;;;;;5063803;28;20040;-55
2021/06/24 08:39:00;;;;;;;8.40;1.90;;;;;;;;;;5037241;28;20036;-55
2021/06/24 08:41:27;;;;;;;8.32;1.90;;;;;;;;;;5045212;28;20033;-54
2021/06/24 08:43:54;;;;;;;9.07;2.50;;;;;;;;;;5035847;28;20094;-54
2021/06/24 08:46:21;;;;;;;4.35;1.88;;;;;;;;;;5038712;28;20045;-55
2021/06/24 08:48:48;;;;;;;7.88;1.98;;;;;;;;;;5050200;28;20036;-52
2021/06/24 08:51:14;;;;;;;8.23;2.05;;;;;;;;;;5079734;28;20118;-52
2021/06/24 08:53:42;;;;;;;11.10;2.03;;;;;;;;;;5075110;28;20037;-55
2021/06/24 08:56:09;;;;;;;13.88;2.15;;;;;;;;;;5080076;28;20068;-53
2021/06/24 08:58:37;;;;;;;9.05;2.08;;;;;;;;;;5069207;28;20033;-52
2021/06/24 09:01:03;;;;;;;4.57;2.10;;;;;;;;;;5079256;28;20051;-56
2021/06/24 09:03:32;;;;;;;9.00;1.80;;;;;;;;;;5075348;28;20056;-56
2021/06/24 09:06:00;;;;;;;3.85;1.70;;;;;;;;;;5078465;28;20041;-57
2021/06/24 09:08:36;;;;;;;4.45;1.80;;;;;;;;;;5072855;28;20044;-56
2021/06/24 09:11:15;;;;;;;4.85;1.83;;;;;;;;;;5058365;28;20121;-51
2021/06/24 09:13:44;;;;;;;16.95;2.10;;;;;;;;;;5057854;28;20063;-55
2021/06/24 09:16:22;;;;;;;6.20;2.10;;;;;;;;;;5061321;28;20107;-56
2021/06/24 09:18:48;;;;;;;5.72;1.77;;;;;;;;;;5046482;28;20117;-57
2021/06/24 09:21:20;;;;;;;5.75;1.92;;;;;;;;;;5068539;28;20090;-53
2021/06/24 09:23:48;;;;;;;7.65;1.70;;;;;;;;;;5078988;28;20146;-55
2021/06/24 09:26:17;;;;;;;6.75;2.00;;;;;;;;;;5062464;28;20040;-55
2021/06/24 09:28:44;;;;;;;7.85;2.15;;;;;;;;;;5060307;28;20036;-54
2021/06/24 09:31:24;;;;;;;6.30;1.80;;;;;;;;;;5064165;28;20080;-55
2021/06/24 09:33:54;;;;;;;8.48;1.92;;;;;;;;;;5059461;28;20040;-55
2021/06/24 09:36:33;;;;;;;6.15;1.88;;;;;;;;;;5078632;28;20039;-55
2021/06/24 09:39:00;;;;;;;5.68;1.90;;;;;;;;;;5077525;28;20037;-53
2021/06/24 09:41:28;;;;;;;4.25;1.63;;;;;;;;;;5062803;28;20070;-54
2021/06/24 09:43:55;;;;;;;4.93;1.75;;;;;;;;;;5060933;28;20079;-56
2021/06/24 09:46:26;;;;;;;7.15;2.10;;;;;;;;;;5057901;28;20028;-51
2021/06/24 09:48:55;;;;;;;6.18;1.73;;;;;;;;;;5078205;28;20040;-56
2021/06/24 09:51:23;;;;;;;4.38;1.70;;;;;;;;;;5074900;28;20033;-54
2021/06/24 09:53:51;;;;;;;7.50;2.03;;;;;;;;;;5078717;28;20029;-54
2021/06/24 09:56:22;;;;;;;5.32;1.77;;;;;;;;;;5064855;28;20056;-56
2021/06/24 09:58:50;;;;;;;5.78;1.90;;;;;;;;;;5063759;28;20052;-57
2021/06/24 10:01:26;;;;;;;3.97;1.90;;;;;;;;;;5051929;28;20125;-55
2021/06/24 10:03:53;;;;;;;4.93;1.85;;;;;;;;;;5078630;28;20048;-54
2021/06/24 10:06:20;;;;;;;5.88;1.73;;;;;;;;;;5073646;28;20068;-53
2021/06/24 10:08:46;;;;;;;5.05;2.10;;;;;;;;;;5081654;28;20109;-54
2021/06/24 10:11:13;;;;;;;3.78;1.90;;;;;;;;;;5063271;28;20045;-57
2021/06/24 10:13:42;;;;;;;7.28;2.67;;;;;;;;;;5044048;28;20025;-58
2021/06/24 10:16:10;;;;;;;4.00;1.98;;;;;;;;;;5056159;28;20069;-54
2021/06/24 10:18:37;;;;;;;9.93;2.70;;;;;;;;;;5042168;28;20048;-56
2021/06/24 10:21:04;;;;;;;4.65;2.55;;;;;;;;;;5040101;28;20060;-55
2021/06/24 10:23:32;;;;;;;6.53;2.40;;;;;;;;;;5041654;28;20049;-57
2021/06/24 10:25:59;;;;;;;6.60;2.60;;;;;;;;;;5037329;28;20053;-55
2021/06/24 10:28:25;;;;;;;8.38;2.20;;;;;;;;;;5042499;28;20053;-57
2021/06/24 10:30:52;;;;;;;7.43;2.33;;;;;;;;;;5056776;28;20044;-52
2021/06/24 10:33:21;;;;;;;5.38;2.03;;;;;;;;;;5036928;28;20042;-54
2021/06/24 10:35:51;;;;;;;8.07;2.20;;;;;;;;;;5005881;28;20057;-56
2021/06/24 10:38:18;;;;;;;15.93;2.40;;;;;;;;;;5034352;28;20084;-55
2021/06/24 10:40:45;;;;;;;9.18;2.40;;;;;;;;;;5022257;28;20045;-55
2021/06/24 10:43:13;;;;;;;5.90;2.55;;;;;;;;;;5023062;28;20037;-54
2021/06/24 10:45:41;;;;;;;4.70;2.20;;;;;;;;;;5038564;28;20038;-56
2021/06/24 10:48:25;;;;;;;8.85;2.83;;;;;;;;;;5017355;28;20058;-56
2021/06/24 10:50:59;;;;;;;7.63;2.40;;;;;;;;;;5018390;28;20069;-55
2021/06/24 10:53:45;;;;;;;9.25;2.53;;;;;;;;;;5000948;28;20041;-56
2021/06/24 10:56:23;;;;;;;9.98;3.15;;;;;;;;;;5021298;28;20045;-56
2021/06/24 10:58:50;;;;;;;6.85;2.35;;;;;;;;;;5032358;28;20045;-54
2021/06/24 11:01:18;;;;;;;6.88;2.53;;;;;;;;;;5040956;28;20041;-55
2021/06/24 11:03:45;;;;;;;;;;;;;;;;;;5036608;28;20034;-54
2021/06/24 11:06:14;;;;;;;10.43;2.63;;;;;;;;;;5041429;28;19913;-56
2021/06/24 11:08:41;;;;;;;11.82;2.85;;;;;;;;;;5026404;28;20056;-57
2021/06/24 11:11:08;;;;;;;6.95;2.80;;;;;;;;;;5057042;28;20036;-57
2021/06/24 11:13:46;;;;;;;11.38;3.33;;;;;;;;;;5060180;28;20047;-57
2021/06/24 11:16:32;;;;;;;14.45;6.78;;;;;;;;;;5065057;28;20049;-56
2021/06/24 11:19:02;;;;;;;9.32;3.78;;;;;;;;;;5059685;28;20076;-57
2021/06/24 11:21:44;;;;;;;9.48;3.33;;;;;;;;;;5064413;28;20105;-54
2021/06/24 11:24:22;;;;;;;6.68;2.83;;;;;;;;;;5059926;28;20047;-57
2021/06/24 11:26:49;;;;;;;10.63;3.75;;;;;;;;;;5026188;28;20049;-57
2021/06/24 11:29:26;;;;;;;7.03;3.65;;;;;;;;;;5048241;28;20036;-55
2021/06/24 11:31:55;;;;;;;14.88;3.58;;;;;;;;;;5081558;28;20048;-54
2021/06/24 11:34:30;;;;;;;13.40;4.40;;;;;;;;;;5054205;28;20051;-56
2021/06/24 11:36:58;;;;;;;12.75;4.30;;;;;;;;;;5077019;28;20049;-57
2021/06/24 11:39:27;;;;;;;7.22;3.67;;;;;;;;;;5073429;28;20053;-57
2021/06/24 11:41:54;;;;;;;8.45;3.65;;;;;;;;;;5077879;28;20098;-56
2021/06/24 11:44:26;;;;;;;9.80;3.58;;;;;;;;;;5076806;28;20045;-57
2021/06/24 11:46:56;;;;;;;10.55;3.85;;;;;;;;;;5065418;28;20040;-56
2021/06/24 11:49:35;;;;;;;11.23;4.60;;;;;;;;;;5054488;28;20057;-55
2021/06/24 12:00:34;;;;;;;10.05;4.05;;;;;;;;;;5045593;28;20033;-55
2021/06/24 12:03:05;;;;;;;12.80;4.30;;;;;;;;;;5064087;28;20029;-56
2021/06/24 12:05:31;;;;;;;8.95;4.13;;;;;;;;;;5058319;28;20052;-57
2021/06/24 12:07:58;;;;;;;9.07;4.10;;;;;;;;;;5065177;28;20045;-57
2021/06/24 12:10:25;;;;;;;12.45;5.22;;;;;;;;;;5074606;28;20068;-55
2021/06/24 12:12:52;;;;;;;12.13;4.95;;;;;;;;;;5078865;28;20052;-58
2021/06/24 12:15:19;;;;;;;10.30;4.88;;;;;;;;;;5076508;28;20040;-57
2021/06/24 12:17:46;;;;;;;9.25;4.97;;;;;;;;;;5064870;28;20126;-54
2021/06/24 12:20:15;;;;;;;11.13;5.07;;;;;;;;;;5080315;28;20041;-57
2021/06/24 12:22:43;;;;;;;8.80;4.35;;;;;;;;;;5058308;28;20051;-55
2021/06/24 12:25:11;;;;;;;13.18;4.53;;;;;;;;;;5063091;28;20041;-58
2021/06/24 12:27:40;;;;;;;12.52;4.55;;;;;;;;;;5059876;28;20045;-55
2021/06/24 12:30:08;;;;;;;12.82;4.80;;;;;;;;;;5078938;28;20117;-54
2021/06/24 12:32:34;;;;;;;12.70;4.90;;;;;;;;;;5059667;28;20069;-55
2021/06/24 12:35:10;;;;;;;11.45;4.75;;;;;;;;;;5078912;28;20049;-57
2021/06/24 12:37:40;;;;;;;9.20;4.85;;;;;;;;;;5074807;28;20053;-58
2021/06/24 12:40:07;;;;;;;12.35;6.40;;;;;;;;;;5064186;28;20045;-56
2021/06/24 12:42:34;;;;;;;12.10;5.60;;;;;;;;;;5074322;28;20025;-57
2021/06/24 12:45:02;;;;;;;13.07;6.10;;;;;;;;;;5063851;28;20041;-58
2021/06/24 12:47:41;;;;;;;12.02;5.40;;;;;;;;;;5058825;28;20037;-56
2021/06/24 12:50:29;;;;;;;9.10;5.13;;;;;;;;;;5080235;28;20105;-57
2021/06/24 12:52:56;;;;;;;15.63;7.00;;;;;;;;;;5048817;28;20064;-58
2021/06/24 12:55:39;;;;;;;14.80;5.55;;;;;;;;;;5044209;28;20037;-58
2021/06/24 12:58:07;;;;;;;15.63;6.28;;;;;;;;;;5039285;28;20033;-58
2021/06/24 13:00:35;;;;;;;10.32;5.45;;;;;;;;;;5043050;28;20057;-58
2021/06/24 13:03:02;;;;;;;12.57;4.82;;;;;;;;;;5046635;28;20125;-58
2021/06/24 13:05:30;;;;;;;;;;;;;;;;;;5079731;28;20045;-56
2021/06/24 13:07:57;;;;;;;12.45;5.50;;;;;;;;;;5057944;28;19928;-58
2021/06/24 13:10:24;;;;;;;18.80;6.15;;;;;;;;;;5058960;28;20055;-58
2021/06/24 13:12:51;;;;;;;15.27;5.90;;;;;;;;;;5030606;28;20060;-58
2021/06/24 13:15:30;;;;;;;14.98;5.80;;;;;;;;;;5041547;28;20118;-59
2021/06/24 13:17:58;;;;;;;11.32;5.38;;;;;;;;;;5052542;28;20105;-58
2021/06/24 13:20:24;;;;;;;12.88;5.00;;;;;;;;;;5003937;28;20062;-58
2021/06/24 13:22:51;;;;;;;10.25;5.38;;;;;;;;;;5002178;28;20101;-59
2021/06/24 13:25:21;;;;;;;10.85;5.30;;;;;;;;;;5024214;28;20074;-58
2021/06/24 13:27:48;;;;;;;12.50;5.70;;;;;;;;;;5042312;28;20080;-58
2021/06/24 13:30:15;;;;;;;13.80;5.63;;;;;;;;;;5001989;28;20034;-58
2021/06/24 13:32:43;;;;;;;13.63;6.10;;;;;;;;;;5002493;28;20086;-58
2021/06/24 13:35:16;;;;;;;14.60;5.05;;;;;;;;;;5014824;28;20045;-59
2021/06/24 13:37:49;;;;;;;13.43;5.57;;;;;;;;;;5036813;28;20033;-58
2021/06/24 13:40:16;;;;;;;12.50;5.97;;;;;;;;;;5002065;28;20042;-58
2021/06/24 13:42:49;;;;;;;13.35;5.93;;;;;;;;;;5002704;28;20111;-59
2021/06/24 13:45:16;;;;;;;11.65;5.57;;;;;;;;;;5013789;28;20042;-60
2021/06/24 13:47:42;;;;;;;12.60;5.60;;;;;;;;;;5024830;28;20197;-58
2021/06/24 13:50:09;;;;;;;11.45;5.10;;;;;;;;;;5019294;28;20049;-58
2021/06/24 13:52:37;;;;;;;17.90;5.72;;;;;;;;;;5023049;28;20042;-56
2021/06/24 13:55:04;;;;;;;15.65;6.50;;;;;;;;;;5023391;28;20058;-58
2021/06/24 13:57:30;;;;;;;11.75;6.05;;;;;;;;;;5043211;28;20037;-59
2021/06/24 13:59:57;;;;;;;12.70;6.15;;;;;;;;;;5035350;28;20044;-58
2021/06/24 14:02:23;;;;;;;12.18;5.35;;;;;;;;;;5022499;28;20062;-58
2021/06/24 14:04:50;;;;;;;10.80;5.70;;;;;;;;;;5025585;28;20048;-58
2021/06/24 14:07:17;;;;;;;11.23;5.55;;;;;;;;;;5042272;28;20052;-58
2021/06/24 14:09:46;;;;;;;12.02;7.10;;;;;;;;;;5032696;28;20049;-57
2021/06/24 14:12:12;;;;;;;9.93;5.15;;;;;;;;;;5039650;28;20033;-58
2021/06/24 14:14:39;;;;;;;10.65;6.30;;;;;;;;;;5042366;28;20037;-58
2021/06/24 14:17:06;;;;;;;12.73;6.22;;;;;;;;;;5026327;28;20041;-56
2021/06/24 14:19:32;;;;;;;11.20;6.10;;;;;;;;;;5041179;28;20044;-58
2021/06/24 14:22:00;;;;;;;13.38;5.93;;;;;;;;;;5019328;28;20049;-58
2021/06/24 14:24:28;;;;;;;10.38;5.45;;;;;;;;;;5002243;28;20046;-58
2021/06/24 14:26:56;;;;;;;15.77;7.23;;;;;;;;;;5022025;28;20052;-58
2021/06/24 14:29:23;;;;;;;12.07;6.13;;;;;;;;;;5035751;28;20046;-58
2021/06/24 14:31:50;;;;;;;13.70;5.63;;;;;;;;;;5005822;28;20038;-58
2021/06/24 14:34:16;;;;;;;12.73;5.95;;;;;;;;;;5016066;28;20078;-58
2021/06/24 14:36:43;;;;;;;15.73;5.90;;;;;;;;;;5024227;28;20041;-57
2021/06/24 14:39:10;;;;;;;13.18;5.65;;;;;;;;;;5014553;28;20127;-57
2021/06/24 14:41:39;;;;;;;13.13;5.78;;;;;;;;;;5017843;28;20034;-58
2021/06/24 14:44:07;;;;;;;13.70;7.03;;;;;;;;;;5020924;28;20025;-59
2021/06/24 14:46:33;;;;;;;11.73;5.90;;;;;;;;;;5013756;28;20120;-58
2021/06/24 14:49:00;;;;;;;11.50;5.78;;;;;;;;;;5002725;28;20038;-58
2021/06/24 14:51:27;;;;;;;13.40;6.70;;;;;;;;;;5017487;28;20042;-58
2021/06/24 14:53:53;;;;;;;19.60;6.63;;;;;;;;;;5021892;28;20058;-58